sensor_id;sensor_type;location;lat;lon;timestamp;pressure;altitude;pressure_sealevel;temperature;humidity
44734;BME280;30462;52.446;-1.930;2023-11-19T00:00:17;99050.29297;;;;
44734;BME280;30462;52.446;-1.930;2023-11-19T00:01:17;99041.59766;;;;
44734;BME280;30462;52.446;-1.930;2023-11-19T00:02:18;99044.52734;;;;
44734;BME280;30462;52.446;-1.930;2023-11-19T00:03:18;99046.07031;;;;
44734;BME280;30462;52.446;-1.930;2023-11-19T00:04:18;99045.91406;;;;
44734;BME280;30462;52.446;-1.930;2023-11-19T00:05:18;99040.61719;;;;
44734;BME280;30462;52.446;-1.930;2023-11-19T00:06:17;99041.32031;;;;
44734;BME280;30462;52.446;-1.930;2023-11-19T00:07:17;99040.55078;;;;
44734;BME280;30462;52.446;-1.930;2023-11-19T00:08:18;99038.69531;;;;
44734;BME280;30462;52.446;-1.930;2023-11-19T00:09:18;99043.94531;;;;
44734;BME280;30462;52.446;-1.930;2023-11-19T00:10:18;99042.25781;;;;
44734;BME280;30462;52.446;-1.930;2023-11-19T00:11:18;99043.30078;;;;
44734;BME280;30462;52.446;-1.930;2023-11-19T00:12:17;99031.91797;;;;
44734;BME280;30462;52.446;-1.930;2023-11-19T00:13:18;99038.05469;;;;
44734;BME280;30462;52.446;-1.930;2023-11-19T00:14:18;99041.70313;;;;
44734;BME280;30462;52.446;-1.930;2023-11-19T00:15:18;99041.5625;;;;
44734;BME280;30462;52.446;-1.930;2023-11-19T00:16:17;99034.21484;;;;
44734;BME280;30462;52.446;-1.930;2023-11-19T00:17:18;99033.38672;;;;
44734;BME280;30462;52.446;-1.930;2023-11-19T00:18:18;99033.82813;;;;
44734;BME280;30462;52.446;-1.930;2023-11-19T00:19:18;99034.16406;;;;
44734;BME280;30462;52.446;-1.930;2023-11-19T00:20:19;99025.80859;;;;
44734;BME280;30462;52.446;-1.930;2023-11-19T00:21:18;99024.03516;;;;
44734;BME280;30462;52.446;-1.930;2023-11-19T00:22:18;99022.58203;;;;
44734;BME280;30462;52.446;-1.930;2023-11-19T00:23:18;99019.72266;;;;
44734;BME280;30462;52.446;-1.930;2023-11-19T00:24:18;99021.8125;;;;
44734;BME280;30462;52.446;-1.930;2023-11-19T00:25:18;99020.4375;;;;
44734;BME280;30462;52.446;-1.930;2023-11-19T00:26:17;99027.61328;;;;
44734;BME280;30462;52.446;-1.930;2023-11-19T00:27:18;99018.96875;;;;
44734;BME280;30462;52.446;-1.930;2023-11-19T00:28:18;99008.19141;;;;
44734;BME280;30462;52.446;-1.930;2023-11-19T00:29:18;99000.64844;;;;
44734;BME280;30462;52.446;-1.930;2023-11-19T00:30:17;99019.35938;;;;
44734;BME280;30462;52.446;-1.930;2023-11-19T00:31:18;99008.17969;;;;
44734;BME280;30462;52.446;-1.930;2023-11-19T00:32:18;99010.37891;;;;
44734;BME280;30462;52.446;-1.930;2023-11-19T00:33:17;99016.65234;;;;
44734;BME280;30462;52.446;-1.930;2023-11-19T00:34:17;99005.78906;;;;
44734;BME280;30462;52.446;-1.930;2023-11-19T00:35:18;99004.87891;;;;
44734;BME280;30462;52.446;-1.930;2023-11-19T00:36:18;99013.67188;;;;
44734;BME280;30462;52.446;-1.930;2023-11-19T00:37:17;99010.39453;;;;
44734;BME280;30462;52.446;-1.930;2023-11-19T00:38:18;99007.15234;;;;
44734;BME280;30462;52.446;-1.930;2023-11-19T00:39:18;99018.8125;;;;
44734;BME280;30462;52.446;-1.930;2023-11-19T00:40:17;99008.15234;;;;
44734;BME280;30462;52.446;-1.930;2023-11-19T00:41:18;99000.8125;;;;
44734;BME280;30462;52.446;-1.930;2023-11-19T00:42:18;99005.23828;;;;
44734;BME280;30462;52.446;-1.930;2023-11-19T00:43:18;99006.46094;;;;
44734;BME280;30462;52.446;-1.930;2023-11-19T00:44:17;99001.39453;;;;
44734;BME280;30462;52.446;-1.930;2023-11-19T00:45:18;98993.97656;;;;
44734;BME280;30462;52.446;-1.930;2023-11-19T00:46:18;99000.51563;;;;
44734;BME280;30462;52.446;-1.930;2023-11-19T00:47:18;98994.625;;;;
44734;BME280;30462;52.446;-1.930;2023-11-19T00:48:18;99000.09375;;;;
44734;BME280;30462;52.446;-1.930;2023-11-19T00:49:18;99007.12109;;;;
44734;BME280;30462;52.446;-1.930;2023-11-19T00:50:17;99014;;;;
44734;BME280;30462;52.446;-1.930;2023-11-19T00:51:18;99013.39453;;;;
44734;BME280;30462;52.446;-1.930;2023-11-19T00:52:18;99008.3125;;;;
44734;BME280;30462;52.446;-1.930;2023-11-19T00:53:18;99025.3125;;;;
44734;BME280;30462;52.446;-1.930;2023-11-19T00:54:17;99037.90234;;;;
44734;BME280;30462;52.446;-1.930;2023-11-19T00:55:18;99033.57031;;;;
44734;BME280;30462;52.446;-1.930;2023-11-19T00:56:18;99030.61719;;;;
44734;BME280;30462;52.446;-1.930;2023-11-19T00:57:18;99034.9375;;;;
44734;BME280;30462;52.446;-1.930;2023-11-19T00:58:17;99034.62109;;;;
44734;BME280;30462;52.446;-1.930;2023-11-19T00:59:18;99028.71875;;;;
44734;BME280;30462;52.446;-1.930;2023-11-19T01:00:18;99031.875;;;;
44734;BME280;30462;52.446;-1.930;2023-11-19T01:01:17;99036.08594;;;;
44734;BME280;30462;52.446;-1.930;2023-11-19T01:02:18;99037.00391;;;;
44734;BME280;30462;52.446;-1.930;2023-11-19T01:03:18;99033.51172;;;;
44734;BME280;30462;52.446;-1.930;2023-11-19T01:04:18;99035.79688;;;;
44734;BME280;30462;52.446;-1.930;2023-11-19T01:05:18;99053.51563;;;;
44734;BME280;30462;52.446;-1.930;2023-11-19T01:07:18;99040.41406;;;;
44734;BME280;30462;52.446;-1.930;2023-11-19T01:08:18;99046.30469;;;;
44734;BME280;30462;52.446;-1.930;2023-11-19T01:09:18;99049.14063;;;;
44734;BME280;30462;52.446;-1.930;2023-11-19T01:10:18;99050.99219;;;;
44734;BME280;30462;52.446;-1.930;2023-11-19T01:12:18;99045.10156;;;;
44734;BME280;30462;52.446;-1.930;2023-11-19T01:13:18;99043.46094;;;;
44734;BME280;30462;52.446;-1.930;2023-11-19T01:14:18;99045.75391;;;;
44734;BME280;30462;52.446;-1.930;2023-11-19T01:15:18;99037.32031;;;;
44734;BME280;30462;52.446;-1.930;2023-11-19T01:16:18;99041.58594;;;;
44734;BME280;30462;52.446;-1.930;2023-11-19T01:17:18;99044.72656;;;;
44734;BME280;30462;52.446;-1.930;2023-11-19T01:18:18;99043.07813;;;;
44734;BME280;30462;52.446;-1.930;2023-11-19T01:19:18;99047.01563;;;;
44734;BME280;30462;52.446;-1.930;2023-11-19T01:20:18;99039.25;;;;
44734;BME280;30462;52.446;-1.930;2023-11-19T01:21:18;99039.72656;;;;
44734;BME280;30462;52.446;-1.930;2023-11-19T01:22:17;99043.67188;;;;
44734;BME280;30462;52.446;-1.930;2023-11-19T01:23:18;99039.92969;;;;
44734;BME280;30462;52.446;-1.930;2023-11-19T01:24:18;99038.89453;;;;
44734;BME280;30462;52.446;-1.930;2023-11-19T01:25:18;99037.62891;;;;
44734;BME280;30462;52.446;-1.930;2023-11-19T01:26:18;99038.98438;;;;
44734;BME280;30462;52.446;-1.930;2023-11-19T01:27:17;99043.41406;;;;
44734;BME280;30462;52.446;-1.930;2023-11-19T01:28:18;99037.12891;;;;
44734;BME280;30462;52.446;-1.930;2023-11-19T01:29:18;99046.14453;;;;
44734;BME280;30462;52.446;-1.930;2023-11-19T01:30:18;99038.83984;;;;
44734;BME280;30462;52.446;-1.930;2023-11-19T01:31:18;99039.41406;;;;
44734;BME280;30462;52.446;-1.930;2023-11-19T01:32:18;99036.20703;;;;
44734;BME280;30462;52.446;-1.930;2023-11-19T01:33:17;99038.63672;;;;
44734;BME280;30462;52.446;-1.930;2023-11-19T01:34:17;99031.84766;;;;
44734;BME280;30462;52.446;-1.930;2023-11-19T01:35:18;99039.26953;;;;
44734;BME280;30462;52.446;-1.930;2023-11-19T01:36:18;99031.44531;;;;
44734;BME280;30462;52.446;-1.930;2023-11-19T01:37:18;99029.87109;;;;
44734;BME280;30462;52.446;-1.930;2023-11-19T01:38:18;99037.62891;;;;
44734;BME280;30462;52.446;-1.930;2023-11-19T01:39:18;99042.12891;;;;
44734;BME280;30462;52.446;-1.930;2023-11-19T01:40:20;99041.76172;;;;
44734;BME280;30462;52.446;-1.930;2023-11-19T01:41:18;99030.24609;;;;
44734;BME280;30462;52.446;-1.930;2023-11-19T01:42:17;99025.01953;;;;
44734;BME280;30462;52.446;-1.930;2023-11-19T01:44:17;99033.64063;;;;
44734;BME280;30462;52.446;-1.930;2023-11-19T01:46:17;99040.65234;;;;
44734;BME280;30462;52.446;-1.930;2023-11-19T01:47:18;99031.02344;;;;
44734;BME280;30462;52.446;-1.930;2023-11-19T01:48:18;99029.24609;;;;
44734;BME280;30462;52.446;-1.930;2023-11-19T01:49:18;99027.59375;;;;
44734;BME280;30462;52.446;-1.930;2023-11-19T01:50:18;99038.12891;;;;
44734;BME280;30462;52.446;-1.930;2023-11-19T01:51:17;99040.32031;;;;
44734;BME280;30462;52.446;-1.930;2023-11-19T01:52:18;99042.10547;;;;
44734;BME280;30462;52.446;-1.930;2023-11-19T01:53:18;99046.77344;;;;
44734;BME280;30462;52.446;-1.930;2023-11-19T01:54:18;99047.8125;;;;
44734;BME280;30462;52.446;-1.930;2023-11-19T01:55:17;99047.97266;;;;
44734;BME280;30462;52.446;-1.930;2023-11-19T01:56:17;99048.74219;;;;
44734;BME280;30462;52.446;-1.930;2023-11-19T01:57:17;99052.9375;;;;
44734;BME280;30462;52.446;-1.930;2023-11-19T01:58:18;99054.02344;;;;
44734;BME280;30462;52.446;-1.930;2023-11-19T01:59:18;99046.54297;;;;
44734;BME280;30462;52.446;-1.930;2023-11-19T02:00:18;99053.00391;;;;
44734;BME280;30462;52.446;-1.930;2023-11-19T02:01:18;99050.33203;;;;
44734;BME280;30462;52.446;-1.930;2023-11-19T02:02:18;99039.41797;;;;
44734;BME280;30462;52.446;-1.930;2023-11-19T02:03:18;99041.32422;;;;
44734;BME280;30462;52.446;-1.930;2023-11-19T02:04:17;99042.45313;;;;
44734;BME280;30462;52.446;-1.930;2023-11-19T02:05:18;99040.05078;;;;
44734;BME280;30462;52.446;-1.930;2023-11-19T02:06:18;99045.31641;;;;
44734;BME280;30462;52.446;-1.930;2023-11-19T02:07:18;99048.97656;;;;
44734;BME280;30462;52.446;-1.930;2023-11-19T02:08:18;99042.92188;;;;
44734;BME280;30462;52.446;-1.930;2023-11-19T02:09:18;99045.69922;;;;
44734;BME280;30462;52.446;-1.930;2023-11-19T02:10:18;99044.53906;;;;
44734;BME280;30462;52.446;-1.930;2023-11-19T02:11:18;99042.25391;;;;
44734;BME280;30462;52.446;-1.930;2023-11-19T02:12:17;99037.71875;;;;
44734;BME280;30462;52.446;-1.930;2023-11-19T02:13:18;99033.34375;;;;
44734;BME280;30462;52.446;-1.930;2023-11-19T02:14:18;99027.375;;;;
44734;BME280;30462;52.446;-1.930;2023-11-19T02:15:18;99026.70313;;;;
44734;BME280;30462;52.446;-1.930;2023-11-19T02:16:18;99026.32813;;;;
44734;BME280;30462;52.446;-1.930;2023-11-19T02:18:19;99025.26172;;;;
44734;BME280;30462;52.446;-1.930;2023-11-19T02:19:18;99016.39453;;;;
44734;BME280;30462;52.446;-1.930;2023-11-19T02:20:17;99025.01172;;;;
44734;BME280;30462;52.446;-1.930;2023-11-19T02:21:18;99026.77344;;;;
44734;BME280;30462;52.446;-1.930;2023-11-19T02:22:18;99025.5625;;;;
44734;BME280;30462;52.446;-1.930;2023-11-19T02:23:18;99020.09375;;;;
44734;BME280;30462;52.446;-1.930;2023-11-19T02:24:17;99019.04297;;;;
44734;BME280;30462;52.446;-1.930;2023-11-19T02:25:19;99024.78516;;;;
44734;BME280;30462;52.446;-1.930;2023-11-19T02:26:20;99021.58594;;;;
44734;BME280;30462;52.446;-1.930;2023-11-19T02:27:20;99021.58594;;;;
44734;BME280;30462;52.446;-1.930;2023-11-19T02:28:18;99023.27734;;;;
44734;BME280;30462;52.446;-1.930;2023-11-19T02:29:18;99018.12109;;;;
44734;BME280;30462;52.446;-1.930;2023-11-19T02:30:17;99026.73828;;;;
44734;BME280;30462;52.446;-1.930;2023-11-19T02:31:18;99026.57422;;;;
44734;BME280;30462;52.446;-1.930;2023-11-19T02:32:18;99024.62891;;;;
44734;BME280;30462;52.446;-1.930;2023-11-19T02:33:18;99030.87109;;;;
44734;BME280;30462;52.446;-1.930;2023-11-19T02:34:18;99025.125;;;;
44734;BME280;30462;52.446;-1.930;2023-11-19T02:35:18;99025.86719;;;;
44734;BME280;30462;52.446;-1.930;2023-11-19T02:36:18;99030.58203;;;;
44734;BME280;30462;52.446;-1.930;2023-11-19T02:37:17;99033.59766;;;;
44734;BME280;30462;52.446;-1.930;2023-11-19T02:38:17;99029.66406;;;;
44734;BME280;30462;52.446;-1.930;2023-11-19T02:39:18;99023.46484;;;;
44734;BME280;30462;52.446;-1.930;2023-11-19T02:40:18;99029.10547;;;;
44734;BME280;30462;52.446;-1.930;2023-11-19T02:41:18;99025.58984;;;;
44734;BME280;30462;52.446;-1.930;2023-11-19T02:42:18;99032.17578;;;;
44734;BME280;30462;52.446;-1.930;2023-11-19T02:43:17;99032.70703;;;;
44734;BME280;30462;52.446;-1.930;2023-11-19T02:44:17;99034.10156;;;;
44734;BME280;30462;52.446;-1.930;2023-11-19T02:45:18;99030.33984;;;;
44734;BME280;30462;52.446;-1.930;2023-11-19T02:46:18;99032.08984;;;;
44734;BME280;30462;52.446;-1.930;2023-11-19T02:47:18;99038.61328;;;;
44734;BME280;30462;52.446;-1.930;2023-11-19T02:48:18;99032.25391;;;;
44734;BME280;30462;52.446;-1.930;2023-11-19T02:49:18;99029.51172;;;;
44734;BME280;30462;52.446;-1.930;2023-11-19T02:50:18;99030.9375;;;;
44734;BME280;30462;52.446;-1.930;2023-11-19T02:51:18;99027.65625;;;;
44734;BME280;30462;52.446;-1.930;2023-11-19T02:52:18;99024.16016;;;;
44734;BME280;30462;52.446;-1.930;2023-11-19T02:53:18;99025.30469;;;;
44734;BME280;30462;52.446;-1.930;2023-11-19T02:54:17;99022.98047;;;;
44734;BME280;30462;52.446;-1.930;2023-11-19T02:55:18;99017.79688;;;;
44734;BME280;30462;52.446;-1.930;2023-11-19T02:56:17;99020.73047;;;;
44734;BME280;30462;52.446;-1.930;2023-11-19T02:57:18;99014.21875;;;;
44734;BME280;30462;52.446;-1.930;2023-11-19T02:58:19;99015.71875;;;;
44734;BME280;30462;52.446;-1.930;2023-11-19T02:59:18;99010.90234;;;;
44734;BME280;30462;52.446;-1.930;2023-11-19T03:00:19;99006.73828;;;;
44734;BME280;30462;52.446;-1.930;2023-11-19T03:02:18;99007.45313;;;;
44734;BME280;30462;52.446;-1.930;2023-11-19T03:03:17;99009.84766;;;;
44734;BME280;30462;52.446;-1.930;2023-11-19T03:04:18;99012.98828;;;;
44734;BME280;30462;52.446;-1.930;2023-11-19T03:05:18;99006.5625;;;;
44734;BME280;30462;52.446;-1.930;2023-11-19T03:06:18;99006.77344;;;;
44734;BME280;30462;52.446;-1.930;2023-11-19T03:07:18;99012.92969;;;;
44734;BME280;30462;52.446;-1.930;2023-11-19T03:08:18;99011.90625;;;;
44734;BME280;30462;52.446;-1.930;2023-11-19T03:09:18;99005.28125;;;;
44734;BME280;30462;52.446;-1.930;2023-11-19T03:10:18;99003.73438;;;;
44734;BME280;30462;52.446;-1.930;2023-11-19T03:11:18;99004.28516;;;;
44734;BME280;30462;52.446;-1.930;2023-11-19T03:12:17;99003.62891;;;;
44734;BME280;30462;52.446;-1.930;2023-11-19T03:13:18;98995.77734;;;;
44734;BME280;30462;52.446;-1.930;2023-11-19T03:14:18;98999;;;;
44734;BME280;30462;52.446;-1.930;2023-11-19T03:15:18;98992.9375;;;;
44734;BME280;30462;52.446;-1.930;2023-11-19T03:16:18;98995.25781;;;;
44734;BME280;30462;52.446;-1.930;2023-11-19T03:17:17;98998.67188;;;;
44734;BME280;30462;52.446;-1.930;2023-11-19T03:18:18;98998.0625;;;;
44734;BME280;30462;52.446;-1.930;2023-11-19T03:19:18;98995.33984;;;;
44734;BME280;30462;52.446;-1.930;2023-11-19T03:20:18;98999.77344;;;;
44734;BME280;30462;52.446;-1.930;2023-11-19T03:21:18;99001.58203;;;;
44734;BME280;30462;52.446;-1.930;2023-11-19T03:22:19;98998.08594;;;;
44734;BME280;30462;52.446;-1.930;2023-11-19T03:23:18;98994.71875;;;;
44734;BME280;30462;52.446;-1.930;2023-11-19T03:24:18;98992.85547;;;;
44734;BME280;30462;52.446;-1.930;2023-11-19T03:25:18;98994.34375;;;;
44734;BME280;30462;52.446;-1.930;2023-11-19T03:26:17;98990.68359;;;;
44734;BME280;30462;52.446;-1.930;2023-11-19T03:27:18;98991.33203;;;;
44734;BME280;30462;52.446;-1.930;2023-11-19T03:28:18;98984.01172;;;;
44734;BME280;30462;52.446;-1.930;2023-11-19T03:29:18;98986.16797;;;;
44734;BME280;30462;52.446;-1.930;2023-11-19T03:30:18;98992.83984;;;;
44734;BME280;30462;52.446;-1.930;2023-11-19T03:31:17;98991.84375;;;;
44734;BME280;30462;52.446;-1.930;2023-11-19T03:32:18;98995.16797;;;;
44734;BME280;30462;52.446;-1.930;2023-11-19T03:33:18;98996.25391;;;;
44734;BME280;30462;52.446;-1.930;2023-11-19T03:34:18;98993.73438;;;;
44734;BME280;30462;52.446;-1.930;2023-11-19T03:35:18;98985.76172;;;;
44734;BME280;30462;52.446;-1.930;2023-11-19T03:36:17;98987.30469;;;;
44734;BME280;30462;52.446;-1.930;2023-11-19T03:37:18;98988.07422;;;;
44734;BME280;30462;52.446;-1.930;2023-11-19T03:38:18;98987.36328;;;;
44734;BME280;30462;52.446;-1.930;2023-11-19T03:39:18;98995.57813;;;;
44734;BME280;30462;52.446;-1.930;2023-11-19T03:40:18;98991.38281;;;;
44734;BME280;30462;52.446;-1.930;2023-11-19T03:41:18;98989.17578;;;;
44734;BME280;30462;52.446;-1.930;2023-11-19T03:42:18;98993.86719;;;;
44734;BME280;30462;52.446;-1.930;2023-11-19T03:43:17;98982.98828;;;;
44734;BME280;30462;52.446;-1.930;2023-11-19T03:44:18;98990.69922;;;;
44734;BME280;30462;52.446;-1.930;2023-11-19T03:45:18;98985.91406;;;;
44734;BME280;30462;52.446;-1.930;2023-11-19T03:46:19;98988.76563;;;;
44734;BME280;30462;52.446;-1.930;2023-11-19T03:47:17;98984.66016;;;;
44734;BME280;30462;52.446;-1.930;2023-11-19T03:48:17;98981.59766;;;;
44734;BME280;30462;52.446;-1.930;2023-11-19T03:49:18;98987.40625;;;;
44734;BME280;30462;52.446;-1.930;2023-11-19T03:50:18;98983.97266;;;;
44734;BME280;30462;52.446;-1.930;2023-11-19T03:51:18;98979.26953;;;;
44734;BME280;30462;52.446;-1.930;2023-11-19T03:52:18;98981.35938;;;;
44734;BME280;30462;52.446;-1.930;2023-11-19T03:53:18;98981.02734;;;;
44734;BME280;30462;52.446;-1.930;2023-11-19T03:54:17;98982.8125;;;;
44734;BME280;30462;52.446;-1.930;2023-11-19T03:55:18;98978.875;;;;
44734;BME280;30462;52.446;-1.930;2023-11-19T03:56:18;98986.05469;;;;
44734;BME280;30462;52.446;-1.930;2023-11-19T03:57:18;98983.85547;;;;
44734;BME280;30462;52.446;-1.930;2023-11-19T03:58:17;98983.52734;;;;
44734;BME280;30462;52.446;-1.930;2023-11-19T03:59:18;98982.75781;;;;
44734;BME280;30462;52.446;-1.930;2023-11-19T04:00:18;98979.25781;;;;
44734;BME280;30462;52.446;-1.930;2023-11-19T04:01:17;98974.46484;;;;
44734;BME280;30462;52.446;-1.930;2023-11-19T04:02:18;98965.74609;;;;
44734;BME280;30462;52.446;-1.930;2023-11-19T04:03:17;98965.71484;;;;
44734;BME280;30462;52.446;-1.930;2023-11-19T04:04:18;98969.84766;;;;
44734;BME280;30462;52.446;-1.930;2023-11-19T04:05:18;98964.86719;;;;
44734;BME280;30462;52.446;-1.930;2023-11-19T04:06:18;98964.80469;;;;
44734;BME280;30462;52.446;-1.930;2023-11-19T04:07:17;98972.58594;;;;
44734;BME280;30462;52.446;-1.930;2023-11-19T04:08:18;98962.85547;;;;
44734;BME280;30462;52.446;-1.930;2023-11-19T04:09:18;98958.98828;;;;
44734;BME280;30462;52.446;-1.930;2023-11-19T04:10:18;98967.50781;;;;
44734;BME280;30462;52.446;-1.930;2023-11-19T04:11:18;98973.18359;;;;
44734;BME280;30462;52.446;-1.930;2023-11-19T04:12:18;98958.70703;;;;
44734;BME280;30462;52.446;-1.930;2023-11-19T04:13:18;98973.57422;;;;
44734;BME280;30462;52.446;-1.930;2023-11-19T04:14:17;98971.95313;;;;
44734;BME280;30462;52.446;-1.930;2023-11-19T04:15:17;98978.63281;;;;
44734;BME280;30462;52.446;-1.930;2023-11-19T04:16:18;98971.8125;;;;
44734;BME280;30462;52.446;-1.930;2023-11-19T04:17:18;98979.72266;;;;
44734;BME280;30462;52.446;-1.930;2023-11-19T04:18:18;98980.18359;;;;
44734;BME280;30462;52.446;-1.930;2023-11-19T04:19:18;98976.45703;;;;
44734;BME280;30462;52.446;-1.930;2023-11-19T04:20:18;98983.34766;;;;
44734;BME280;30462;52.446;-1.930;2023-11-19T04:21:17;98980.44141;;;;
44734;BME280;30462;52.446;-1.930;2023-11-19T04:22:18;98983.13672;;;;
44734;BME280;30462;52.446;-1.930;2023-11-19T04:23:18;98969.57813;;;;
44734;BME280;30462;52.446;-1.930;2023-11-19T04:24:18;98978.26953;;;;
44734;BME280;30462;52.446;-1.930;2023-11-19T04:25:17;98976.82422;;;;
44734;BME280;30462;52.446;-1.930;2023-11-19T04:26:18;98981.75391;;;;
44734;BME280;30462;52.446;-1.930;2023-11-19T04:27:18;98988.91406;;;;
44734;BME280;30462;52.446;-1.930;2023-11-19T04:28:17;98974.97266;;;;
44734;BME280;30462;52.446;-1.930;2023-11-19T04:29:18;98984.00391;;;;
44734;BME280;30462;52.446;-1.930;2023-11-19T04:30:18;98984.44922;;;;
44734;BME280;30462;52.446;-1.930;2023-11-19T04:31:18;98982.03125;;;;
44734;BME280;30462;52.446;-1.930;2023-11-19T04:32:17;98983.94141;;;;
44734;BME280;30462;52.446;-1.930;2023-11-19T04:33:18;98980.00781;;;;
44734;BME280;30462;52.446;-1.930;2023-11-19T04:34:18;98981.48828;;;;
44734;BME280;30462;52.446;-1.930;2023-11-19T04:35:18;98979.60156;;;;
44734;BME280;30462;52.446;-1.930;2023-11-19T04:36:18;98967.78516;;;;
44734;BME280;30462;52.446;-1.930;2023-11-19T04:37:18;98977.14844;;;;
44734;BME280;30462;52.446;-1.930;2023-11-19T04:38:18;98978.67188;;;;
44734;BME280;30462;52.446;-1.930;2023-11-19T04:39:17;98977.69922;;;;
44734;BME280;30462;52.446;-1.930;2023-11-19T04:40:18;98973.33203;;;;
44734;BME280;30462;52.446;-1.930;2023-11-19T04:41:17;98983.43359;;;;
44734;BME280;30462;52.446;-1.930;2023-11-19T04:42:17;98977.98438;;;;
44734;BME280;30462;52.446;-1.930;2023-11-19T04:43:18;98982.19141;;;;
44734;BME280;30462;52.446;-1.930;2023-11-19T04:44:18;98981.28906;;;;
44734;BME280;30462;52.446;-1.930;2023-11-19T04:45:18;98977.43359;;;;
44734;BME280;30462;52.446;-1.930;2023-11-19T04:46:18;98973.43359;;;;
44734;BME280;30462;52.446;-1.930;2023-11-19T04:47:18;98976.83203;;;;
44734;BME280;30462;52.446;-1.930;2023-11-19T04:48:18;98985.09766;;;;
44734;BME280;30462;52.446;-1.930;2023-11-19T04:49:18;98985.19531;;;;
44734;BME280;30462;52.446;-1.930;2023-11-19T04:50:18;98991.64453;;;;
44734;BME280;30462;52.446;-1.930;2023-11-19T04:51:18;98995.58594;;;;
44734;BME280;30462;52.446;-1.930;2023-11-19T04:52:17;98988.27344;;;;
44734;BME280;30462;52.446;-1.930;2023-11-19T04:53:18;98990.4375;;;;
44734;BME280;30462;52.446;-1.930;2023-11-19T04:54:18;98991.00391;;;;
44734;BME280;30462;52.446;-1.930;2023-11-19T04:55:18;98994.10156;;;;
44734;BME280;30462;52.446;-1.930;2023-11-19T04:56:18;98994.82813;;;;
44734;BME280;30462;52.446;-1.930;2023-11-19T04:57:18;98998.20313;;;;
44734;BME280;30462;52.446;-1.930;2023-11-19T04:58:18;99001.25391;;;;
44734;BME280;30462;52.446;-1.930;2023-11-19T04:59:18;99003.23047;;;;
44734;BME280;30462;52.446;-1.930;2023-11-19T05:00:17;98999.35156;;;;
44734;BME280;30462;52.446;-1.930;2023-11-19T05:01:18;98995.57813;;;;
44734;BME280;30462;52.446;-1.930;2023-11-19T05:02:18;98999.57813;;;;
44734;BME280;30462;52.446;-1.930;2023-11-19T05:03:18;98995.02734;;;;
44734;BME280;30462;52.446;-1.930;2023-11-19T05:04:17;99000.94531;;;;
44734;BME280;30462;52.446;-1.930;2023-11-19T05:05:18;99003.96875;;;;
44734;BME280;30462;52.446;-1.930;2023-11-19T05:06:18;98996.67188;;;;
44734;BME280;30462;52.446;-1.930;2023-11-19T05:07:18;98992.98047;;;;
44734;BME280;30462;52.446;-1.930;2023-11-19T05:08:17;98976.35938;;;;
44734;BME280;30462;52.446;-1.930;2023-11-19T05:09:18;98991.59766;;;;
44734;BME280;30462;52.446;-1.930;2023-11-19T05:10:18;98987.79297;;;;
44734;BME280;30462;52.446;-1.930;2023-11-19T05:11:18;98985.87109;;;;
44734;BME280;30462;52.446;-1.930;2023-11-19T05:12:17;98988.51953;;;;
44734;BME280;30462;52.446;-1.930;2023-11-19T05:13:18;98993.05469;;;;
44734;BME280;30462;52.446;-1.930;2023-11-19T05:14:18;98990.38281;;;;
44734;BME280;30462;52.446;-1.930;2023-11-19T05:15:18;98988.25391;;;;
44734;BME280;30462;52.446;-1.930;2023-11-19T05:16:18;98982.62891;;;;
44734;BME280;30462;52.446;-1.930;2023-11-19T05:17:17;98981.28906;;;;
44734;BME280;30462;52.446;-1.930;2023-11-19T05:18:18;98968.17578;;;;
44734;BME280;30462;52.446;-1.930;2023-11-19T05:19:18;98969.84375;;;;
44734;BME280;30462;52.446;-1.930;2023-11-19T05:20:18;98965.57813;;;;
44734;BME280;30462;52.446;-1.930;2023-11-19T05:21:18;98962.79297;;;;
44734;BME280;30462;52.446;-1.930;2023-11-19T05:22:18;98961.70313;;;;
44734;BME280;30462;52.446;-1.930;2023-11-19T05:23:18;98966.13281;;;;
44734;BME280;30462;52.446;-1.930;2023-11-19T05:24:18;98961.625;;;;
44734;BME280;30462;52.446;-1.930;2023-11-19T05:25:18;98961.40234;;;;
44734;BME280;30462;52.446;-1.930;2023-11-19T05:26:18;98962.04688;;;;
44734;BME280;30462;52.446;-1.930;2023-11-19T05:27:18;98962.38672;;;;
44734;BME280;30462;52.446;-1.930;2023-11-19T05:28:18;98952.04297;;;;
44734;BME280;30462;52.446;-1.930;2023-11-19T05:29:17;98953.69141;;;;
44734;BME280;30462;52.446;-1.930;2023-11-19T05:30:17;98952;;;;
44734;BME280;30462;52.446;-1.930;2023-11-19T05:31:17;98948.46094;;;;
44734;BME280;30462;52.446;-1.930;2023-11-19T05:32:17;98949.05859;;;;
44734;BME280;30462;52.446;-1.930;2023-11-19T05:33:18;98952.55469;;;;
44734;BME280;30462;52.446;-1.930;2023-11-19T05:34:18;98949.82422;;;;
44734;BME280;30462;52.446;-1.930;2023-11-19T05:35:18;98954.70703;;;;
44734;BME280;30462;52.446;-1.930;2023-11-19T05:36:18;98958.01953;;;;
44734;BME280;30462;52.446;-1.930;2023-11-19T05:37:17;98962.77344;;;;
44734;BME280;30462;52.446;-1.930;2023-11-19T05:38:18;98964.73047;;;;
44734;BME280;30462;52.446;-1.930;2023-11-19T05:39:18;98961.73438;;;;
44734;BME280;30462;52.446;-1.930;2023-11-19T05:40:17;98966.86719;;;;
44734;BME280;30462;52.446;-1.930;2023-11-19T05:41:18;98968.83984;;;;
44734;BME280;30462;52.446;-1.930;2023-11-19T05:42:18;98962.28906;;;;
44734;BME280;30462;52.446;-1.930;2023-11-19T05:43:18;98965.52344;;;;
44734;BME280;30462;52.446;-1.930;2023-11-19T05:44:17;98963.99219;;;;
44734;BME280;30462;52.446;-1.930;2023-11-19T05:45:17;98958.39453;;;;
44734;BME280;30462;52.446;-1.930;2023-11-19T05:46:18;98965.06641;;;;
44734;BME280;30462;52.446;-1.930;2023-11-19T05:47:18;98960.86719;;;;
44734;BME280;30462;52.446;-1.930;2023-11-19T05:48:17;98961.72656;;;;
44734;BME280;30462;52.446;-1.930;2023-11-19T05:49:17;98965.82422;;;;
44734;BME280;30462;52.446;-1.930;2023-11-19T05:50:18;98955.39063;;;;
44734;BME280;30462;52.446;-1.930;2023-11-19T05:51:18;98958.79688;;;;
44734;BME280;30462;52.446;-1.930;2023-11-19T05:52:18;98952.89844;;;;